aviador You're here:

KHKS Decoded Metar

JACKSON/HAWKINS in MS, USA
Report Time2017-05-23 19:53:00
UTC Time2017-05-23 20:26:57
Flight Rules vfr VFR
Wind300° at 09 kt
W.Decomp.*RWY 29: 8.9 kt HW 1.6 kt RCW
RWY 34: 6.9 kt HW 5.8 kt LCW
W.Rank300° ranks 17
Current wind is above 300° avg. (7.3)
Visibility9999 m
Phenomena:N/A
Clouds:Few 047 Hf
Broken 070 Hf
Expected CloudBase > 1,600 ft AGL from Temp-Dew spread
Ceiling7,000 ft
Temp22°C (ISA +8)
Dew Point18°C (78% RH)
AAT21.5°C
QNH1008 hPa
Density Alt1,696 ft
Elevation354 ft
Report Wrong Elevation
Raw Report
KHKS 231953Z 30009KT 10SM FEW047 BKN070 22/18 A2978 RMK AO2 SLP076
T02220178=

Extra information for KHKS:More info

Metar Taf Metar & Taf Last 4 Metars F.Rules Stats Wind Profile Meteogram Temp Stats Airport Information Weather charts Add Link Nearby VenuesMetar ALERT Operation Metar Decoded Social comments

AIRNAV info for KHKS